M I D A S
Marine Information and Data Acquisition System
Tripno 312 of the Zeeleeuw from 2002-08-28 07:07:12 to 2002-08-28 10:53:29
Back to CruiseResearch ActivitiesStationsMapUnderway DataData graphs

EquipmentUnitsComment
TimeDGPSUTC
LatitudeDGPSDM.mWGS84
LongitudeDGPSDM.mWGS84
HeadingGyrodeg 
SOGDGPSknotsSpeed over ground
COGDGPSdegCourse over ground
DepthEcho soundermeters200 kHz
Missing or incorrect values are displayed as -999
Navigation data collected by the RV Zeeleeuw from 2002-08-28 07:07:12 to 2002-08-28 10:53:29
Time Latitude Longitude Heading SOG COG Depth
2002-08-28 07:08:16 51°14.745 2°54.682 341 12.6 333.2 9.6
2002-08-28 07:09:15 51°14.928 2°54.532 339 12.7 332.4 9.2
2002-08-28 07:10:16 51°15.119 2°54.377 340.2 12.6 333.6 8.8
2002-08-28 07:11:16 51°15.308 2°54.226 340.5 12.8 333.8 9.3
2002-08-28 07:12:16 51°15.5 2°54.07 338.2 12.9 331.2 10.1
2002-08-28 07:13:16 51°15.687 2°53.903 337.5 12.9 330.3 11
2002-08-28 07:14:16 51°15.873 2°53.732 337.7 12.9 329.9 11.5
2002-08-28 07:15:16 51°16.061 2°53.57 338.5 12.9 332.7 12.1
2002-08-28 07:16:16 51°16.25 2°53.408 337.5 13 331.5 12.4
2002-08-28 07:17:16 51°16.439 2°53.245 338.3 12.9 332 12.5
2002-08-28 07:18:16 51°16.629 2°53.083 338.3 13 332 11.7
2002-08-28 07:19:16 51°16.814 2°52.914 335.7 12.8 329.4 9.3
2002-08-28 07:20:16 51°17 2°52.739 335.8 13 329.7 9.9
2002-08-28 07:21:16 51°17.194 2°52.592 343.8 12.9 337.5 9.6
2002-08-28 07:22:16 51°17.405 2°52.545 6 13.1 359.7 10.2
2002-08-28 07:23:16 51°17.629 2°52.541 5.2 13.6 359.3 10.4
2002-08-28 07:24:16 51°17.854 2°52.53 4 13.6 357.7 10.3
2002-08-28 07:25:16 51°18.08 2°52.513 3.5 13.6 356.7 10.6
2002-08-28 07:26:16 51°18.307 2°52.492 3.3 13.7 357.3 11
2002-08-28 07:27:16 51°18.489 2°52.65 56.8 12.8 54 11.1
2002-08-28 07:28:16 51°18.568 2°52.969 75.3 13.1 72.9 11.3
2002-08-28 07:29:14 51°18.629 2°53.291 76.2 13.2 73.8 11.1
2002-08-28 07:30:16 51°18.692 2°53.638 75.7 13.2 73.1 11.2
2002-08-28 07:31:16 51°18.751 2°53.975 76.7 13.2 74 11.2
2002-08-28 07:32:15 51°18.81 2°54.306 76.2 13.2 73.6 11.2
2002-08-28 07:33:14 51°18.866 2°54.636 76.8 13.1 74.5 11.1
2002-08-28 07:34:14 51°18.924 2°54.971 78.3 13 74.8 11.1
2002-08-28 07:35:16 51°18.983 2°55.317 77 13.1 74.5 10.9
2002-08-28 07:36:14 51°19.04 2°55.64 77.8 13.1 74.5 10.8
2002-08-28 07:37:14 51°19.097 2°55.974 76.8 13 74.7 10.5
2002-08-28 07:38:15 51°19.156 2°56.313 78.3 13 75.7 10.3
2002-08-28 07:39:16 51°19.219 2°56.651 73.5 13 71.7 10
2002-08-28 07:40:15 51°19.299 2°56.967 72.2 13 69.1 10
2002-08-28 07:41:15 51°19.379 2°57.289 71.7 13.1 68.6 10
2002-08-28 07:42:16 51°19.461 2°57.615 71 13 68.3 9.9
2002-08-28 07:43:16 51°19.537 2°57.937 71.7 13 68.4 10
2002-08-28 07:44:15 51°19.616 2°58.251 72.3 13 69.4 9.6
2002-08-28 07:45:14 51°19.692 2°58.569 71.2 13.1 68.6 9.6
2002-08-28 07:46:16 51°19.771 2°58.901 72.2 13 69.1 9.3
2002-08-28 07:47:16 51°19.846 2°59.218 71.7 12.8 69.5 9.2
2002-08-28 07:48:14 51°19.918 2°59.524 72.5 12.7 69.7 9.1
2002-08-28 07:49:14 51°19.994 2°59.837 72 12.6 69.1 8.8
2002-08-28 07:50:16 51°20.072 3°0.161 72.2 12.6 68.9 8.9
2002-08-28 07:51:16 51°20.148 3°0.472 71.2 12.6 68.2 8.9
2002-08-28 07:52:14 51°20.23 3°0.766 69.7 12.5 65.6 8.8
2002-08-28 07:53:14 51°20.314 3°1.07 71.2 12.4 67.2 8.8
2002-08-28 07:54:16 51°20.396 3°1.384 70.3 12.5 67.1 9
2002-08-28 07:55:16 51°20.477 3°1.686 68.3 12.3 66.1 8.9
2002-08-28 07:56:14 51°20.556 3°1.979 70 12.4 66.6 9
2002-08-28 07:57:14 51°20.639 3°2.281 70.2 12.3 67.1 8.8
2002-08-28 07:58:15 51°20.721 3°2.586 69.8 12.3 66.9 9
2002-08-28 07:59:14 51°20.801 3°2.881 71.2 12.3 67.6 8.8
2002-08-28 08:00:16 51°20.883 3°3.19 68.8 12.3 65.6 8.8
2002-08-28 08:01:16 51°20.973 3°3.485 67.5 12.3 63.8 9.1
2002-08-28 08:02:16 51°21.064 3°3.778 67.7 12.3 64.2 9
2002-08-28 08:03:14 51°21.152 3°4.062 68.2 12.3 64.5 9.3
2002-08-28 08:04:16 51°21.241 3°4.366 68.5 12.3 64.9 9.5
2002-08-28 08:05:16 51°21.33 3°4.662 66.8 12.4 63.4 9.8
2002-08-28 08:06:15 51°21.415 3°4.952 66.7 12.2 63.2 9.8
2002-08-28 08:07:16 51°21.505 3°5.249 67.5 12.2 63.5 10
2002-08-28 08:08:16 51°21.59 3°5.543 70.7 12.2 67.2 10
2002-08-28 08:09:16 51°21.667 3°5.843 71 12.2 68 10.2
2002-08-28 08:10:16 51°21.742 3°6.145 73.2 12.2 69.4 10.5
2002-08-28 08:11:16 51°21.792 3°6.458 79.8 12.1 77.4 10.7
2002-08-28 08:12:16 51°21.848 3°6.769 77.2 12.2 73.8 10.7
2002-08-28 08:13:16 51°21.903 3°7.079 77.7 12.2 74.8 10.7
2002-08-28 08:14:15 51°21.947 3°7.392 79.7 12.3 77.8 11.1
2002-08-28 08:15:15 51°21.99 3°7.709 79.2 12.2 77.6 11.2
2002-08-28 08:16:16 51°22.032 3°8.032 79.7 12.1 78.5 10.9
2002-08-28 08:17:16 51°22.075 3°8.342 78.7 11.9 76.9 11.1
2002-08-28 08:18:15 51°22.107 3°8.628 80.7 9.6 81.8 11.4
2002-08-28 08:19:16 51°22.1 3°8.859 89.7 8.2 94.7 11.6
2002-08-28 08:20:15 51°22.096 3°9.069 86.3 8 89 11.7
2002-08-28 08:21:15 51°22.094 3°9.288 87 9.5 89.2 12
2002-08-28 08:22:15 51°22.116 3°9.583 79.2 11.7 79.1 12.3
2002-08-28 08:23:16 51°22.179 3°9.881 73.8 11.5 70.8 12.8
2002-08-28 08:24:15 51°22.239 3°10.171 76.5 11.7 73.2 13.4
2002-08-28 08:25:15 51°22.296 3°10.473 76.3 12 73.6 17
2002-08-28 08:26:17 51°22.358 3°10.783 77 11.7 73.6 15.6
2002-08-28 08:27:15 51°22.409 3°11.068 79.7 11.5 76.2 14.7
2002-08-28 08:28:15 51°22.454 3°11.371 79.7 11.8 76.5 14.6
2002-08-28 08:29:17 51°22.5 3°11.683 81.7 11.7 78.7 14.3
2002-08-28 08:30:16 51°22.537 3°11.983 81.2 11.7 78.6 13.6
2002-08-28 08:31:16 51°22.578 3°12.286 79.5 11.6 77.5 13.1
2002-08-28 08:32:15 51°22.615 3°12.584 83 11.6 79.6 12.6
2002-08-28 08:33:16 51°22.652 3°12.893 80.7 11.6 76.8 12
2002-08-28 08:34:15 51°22.692 3°13.19 80.5 11.8 77.2 11.3
2002-08-28 08:35:15 51°22.732 3°13.493 82.2 11.6 78.6 10.5
2002-08-28 08:36:16 51°22.771 3°13.802 82.2 11.7 79.6 10
2002-08-28 08:37:16 51°22.81 3°14.102 81.8 11.4 79.2 9.6
2002-08-28 08:38:15 51°22.849 3°14.396 80.5 11.6 78.3 9
2002-08-28 08:39:16 51°22.89 3°14.703 80 11.7 77.9 8.6
2002-08-28 08:40:16 51°22.93 3°15.008 81.8 11.7 78.9 8.3
2002-08-28 08:41:15 51°22.97 3°15.307 79.8 11.8 76.7 7.9
2002-08-28 08:42:16 51°23.007 3°15.615 80.5 11.5 78 7.7
2002-08-28 08:43:16 51°23.042 3°15.912 83.2 11.4 80.4 7.6
2002-08-28 08:44:15 51°23.076 3°16.199 75.8 11.1 72.5 7.3
2002-08-28 08:45:16 51°23.229 3°16.347 18.7 11.9 6.7 7.6
2002-08-28 08:46:16 51°23.438 3°16.33 6.5 12.9 354.6 7.7
2002-08-28 08:47:17 51°23.661 3°16.297 8 13.6 352.2 9.6
2002-08-28 08:48:15 51°23.881 3°16.257 9.8 13.9 353.7 11.3
2002-08-28 08:49:16 51°24.116 3°16.215 9.2 13.9 353.9 12
2002-08-28 08:50:16 51°24.347 3°16.178 6.5 14.2 351.5 14.4
2002-08-28 08:51:15 51°24.56 3°15.985 326 15.7 315.8 17.4
2002-08-28 08:52:16 51°24.656 3°15.583 281.8 16.4 277.4 17.8
2002-08-28 08:53:16 51°24.628 3°15.149 263.7 16.5 262.9 17.1
2002-08-28 08:54:17 51°24.607 3°14.7 269.5 16.7 267.2 18.1
2002-08-28 08:55:16 51°24.592 3°14.267 267.5 16.5 266 17.5
2002-08-28 08:56:15 51°24.567 3°13.833 267.2 16.7 264.7 17.1
2002-08-28 08:57:16 51°24.54 3°13.388 266.3 16.4 263.5 17.3
2002-08-28 08:58:16 51°24.515 3°12.957 266.5 16.3 264.1 17.4
2002-08-28 08:59:14 51°24.485 3°12.54 267 16.3 263 17.3
2002-08-28 09:00:15 51°24.456 3°12.102 266.3 16.3 263.3 17.8
2002-08-28 09:01:17 51°24.418 3°11.66 266.2 16.2 263 16.7
2002-08-28 09:02:21 51°24.381 3°11.206 266.8 15.9 263.2 16.9
2002-08-28 09:03:22 51°24.347 3°10.781 266.2 15.8 262.7 16.8
2002-08-28 09:04:21 51°24.33 3°10.37 274 15.7 269.1 16.1
2002-08-28 09:05:21 51°24.357 3°9.961 288.2 15.4 281.1 14.7
2002-08-28 09:06:22 51°24.441 3°9.573 301.2 15.1 293.2 11.5
2002-08-28 09:07:26 51°24.542 3°9.174 299.7 15.2 291.6 9.9
2002-08-28 09:08:26 51°24.631 3°8.798 298.3 15.1 290.4 9
2002-08-28 09:09:26 51°24.721 3°8.426 298.7 14.9 291.2 8.5
2002-08-28 09:10:27 51°24.811 3°8.055 298.5 14.7 291.8 8.5
2002-08-28 09:11:27 51°24.914 3°7.703 309.8 14.5 302.5 8.6
2002-08-28 09:12:26 51°25.093 3°7.5 347.3 13.1 338.8 7.6
2002-08-28 09:13:31 51°25.319 3°7.502 19.7 12.6 12.7 7.8
2002-08-28 09:14:31 51°25.511 3°7.633 30.2 12.7 23.6 8
2002-08-28 09:15:35 51°25.719 3°7.775 30.5 12.8 24.7 8.3
2002-08-28 09:16:37 51°25.915 3°7.93 32.7 12.7 26.6 8.4
2002-08-28 09:17:36 51°26.103 3°8.076 32.2 12.7 26.1 8.3
2002-08-28 09:18:36 51°26.295 3°8.228 34 12.9 28.1 8.8
2002-08-28 09:19:35 51°26.482 3°8.387 33.7 13.1 27.9 9.8
2002-08-28 09:20:37 51°26.676 3°8.562 35.7 12.9 30.9 10.5
2002-08-28 09:21:37 51°26.864 3°8.732 34.5 13 29.4 10.6
2002-08-28 09:22:36 51°27.046 3°8.901 34.3 12.8 29.5 10.8
2002-08-28 09:23:35 51°27.229 3°9.071 35.2 12.9 30.2 10.3
2002-08-28 09:24:35 51°27.414 3°9.239 32.7 12.9 28.1 10.1
2002-08-28 09:25:35 51°27.599 3°9.411 35.3 12.9 30.5 10.5
2002-08-28 09:26:37 51°27.79 3°9.591 36 12.9 31.1 11.1
2002-08-28 09:27:35 51°27.983 3°9.702 20.2 12.9 14 11.5
2002-08-28 09:28:36 51°28.192 3°9.803 28.3 12.8 22.6 11.9
2002-08-28 09:29:37 51°28.381 3°9.964 33.7 12.7 28.8 12.2
2002-08-28 09:30:35 51°28.554 3°10.133 36.3 12.6 31.4 12.4
2002-08-28 09:31:35 51°28.737 3°10.3 27.7 12.6 23.1 12.4
2002-08-28 09:32:35 51°28.923 3°10.181 313.7 13.6 306.5 13.1
2002-08-28 09:33:36 51°28.936 3°9.803 256.8 14.6 253.9 13.9
2002-08-28 09:34:34 51°28.783 3°9.51 227.5 15.1 225.2 14
2002-08-28 09:35:36 51°28.599 3°9.213 224.5 15.4 223.5 14
2002-08-28 09:36:37 51°28.396 3°8.961 214.3 15.2 215.2 13.5
2002-08-28 09:37:36 51°28.191 3°8.739 213 15.1 212.2 13.2
2002-08-28 09:38:35 51°27.982 3°8.519 214.7 15.7 214 12.5
2002-08-28 09:39:36 51°27.773 3°8.287 215.7 15.2 215.3 12.2
2002-08-28 09:40:37 51°27.561 3°8.059 212.3 15.3 212 11.1
2002-08-28 09:41:35 51°27.352 3°7.854 215 15.4 215.2 10.1
2002-08-28 09:42:37 51°27.136 3°7.619 213.5 15.2 213.7 10.5
2002-08-28 09:43:37 51°26.921 3°7.404 212.7 15.2 211.7 10.5
2002-08-28 09:44:37 51°26.706 3°7.19 211.7 15.1 210.7 10.2
2002-08-28 09:45:36 51°26.498 3°6.972 213 15.4 211.8 10
2002-08-28 09:46:37 51°26.282 3°6.752 213.8 15 213.9 9.1
2002-08-28 09:47:37 51°26.076 3°6.522 223.3 15 221.3 9.4
2002-08-28 09:48:34 51°25.939 3°6.21 242 15.2 236.9 9
2002-08-28 09:49:37 51°25.792 3°5.859 239.7 15.1 235.7 9.1
2002-08-28 09:50:35 51°25.643 3°5.545 238.3 15.5 233.8 9.6
2002-08-28 09:51:37 51°25.486 3°5.211 237.2 15.1 233.8 10.5
2002-08-28 09:52:42 51°25.32 3°4.859 236.2 15.4 233.1 11.1
2002-08-28 09:53:42 51°25.156 3°4.547 231.5 15.5 227.9 12.1
2002-08-28 09:54:42 51°24.965 3°4.281 216.7 15.5 215.3 13.6
2002-08-28 09:55:42 51°24.753 3°4.062 211.2 15.5 211 13.6
2002-08-28 09:56:42 51°24.517 3°3.931 188.3 14.9 190.8 16.6
2002-08-28 09:57:43 51°24.276 3°3.9 181.2 14.1 183.5 17.7
2002-08-28 09:58:42 51°24.041 3°3.83 190.5 14.8 194.7 13.2
2002-08-28 09:59:42 51°23.803 3°3.722 191.7 15 194.8 12.7
2002-08-28 10:00:42 51°23.579 3°3.545 209.2 14.7 210.4 11.5
2002-08-28 10:01:43 51°23.369 3°3.314 212.7 15.5 214 11.5
2002-08-28 10:02:42 51°23.155 3°3.103 208.3 15.6 209.9 11.5
2002-08-28 10:03:42 51°22.932 3°2.906 209.5 15.2 209.7 11.2
2002-08-28 10:04:42 51°22.713 3°2.703 210.8 15.3 210.8 10.2
2002-08-28 10:05:43 51°22.491 3°2.503 209.8 15.1 209.3 10.3
2002-08-28 10:06:42 51°22.274 3°2.306 208 14.9 208.6 10.6
2002-08-28 10:07:43 51°22.067 3°2.06 221.7 15 219.9 10.5
2002-08-28 10:08:43 51°21.913 3°1.736 235.8 15.3 233.8 10.6
2002-08-28 10:09:42 51°21.769 3°1.404 236.5 15.4 233.6 10.5
2002-08-28 10:10:42 51°21.625 3°1.065 240.3 15.5 237.6 10.6
2002-08-28 10:11:42 51°21.491 3°0.713 240.2 15.5 237.8 10.6
2002-08-28 10:12:43 51°21.349 3°0.36 238.5 15.5 237.2 10.4
2002-08-28 10:13:42 51°21.209 3°0.019 238.7 15.7 237.1 10.4
2002-08-28 10:14:42 51°21.066 2°59.673 240.7 15.6 238.4 10.5
2002-08-28 10:15:43 51°20.927 2°59.314 241.2 15.5 238.3 10.5
2002-08-28 10:16:43 51°20.79 2°58.963 240.5 15.5 239.4 10.5
2002-08-28 10:17:42 51°20.656 2°58.619 239.2 15.5 236.5 10.6
2002-08-28 10:18:42 51°20.519 2°58.271 239.5 15.5 237.6 10.6
2002-08-28 10:19:43 51°20.378 2°57.915 240.2 15.5 237.7 10.7
2002-08-28 10:20:42 51°20.241 2°57.573 239.5 15.6 236.4 10.6
2002-08-28 10:21:43 51°20.105 2°57.217 239.5 15.5 236.5 10.6
2002-08-28 10:22:43 51°19.956 2°56.883 235.5 15.5 233.6 10.8
2002-08-28 10:23:43 51°19.808 2°56.544 236.8 15.6 235.3 10.9
2002-08-28 10:24:43 51°19.657 2°56.208 235 15.6 232.7 10.6
2002-08-28 10:25:42 51°19.512 2°55.875 236.5 15.6 233.7 10.9
2002-08-28 10:26:42 51°19.361 2°55.543 238.2 15.4 235.4 10.7
2002-08-28 10:27:42 51°19.213 2°55.207 238.2 15.5 235.5 10.7
2002-08-28 10:28:42 51°19.063 2°54.872 236.3 15.5 234.1 10.6
2002-08-28 10:29:43 51°18.911 2°54.53 238.8 15.6 235.6 10.4
2002-08-28 10:30:43 51°18.761 2°54.189 236.2 15.7 234.2 10.4
2002-08-28 10:31:42 51°18.611 2°53.858 235.2 15.5 233.6 10.4
2002-08-28 10:32:43 51°18.462 2°53.509 236.8 15.6 234.9 10.4
2002-08-28 10:33:43 51°18.312 2°53.169 236.2 15.5 234.4 10.2
2002-08-28 10:34:42 51°18.164 2°52.84 238.5 15.5 235.5 9.9
2002-08-28 10:35:42 51°17.983 2°52.554 209.8 15.4 211.1 9.6
2002-08-28 10:36:42 51°17.746 2°52.401 191.3 15.4 193.4 9.5
2002-08-28 10:37:42 51°17.495 2°52.341 186.2 15.4 188 9.8
2002-08-28 10:38:42 51°17.239 2°52.319 178 15.5 180.9 9.6
2002-08-28 10:39:42 51°17 2°52.408 152.2 14.6 156.6 9
2002-08-28 10:40:43 51°16.788 2°52.602 142.8 14.1 147.2 9.2
2002-08-28 10:41:43 51°16.592 2°52.822 143 14.6 146.6 10.8
2002-08-28 10:42:42 51°16.386 2°53.015 149.7 14.4 153.2 11.7
2002-08-28 10:43:42 51°16.173 2°53.2 146.3 14.4 150.7 11.8
2002-08-28 10:44:43 51°15.954 2°53.382 148 14.6 154 11.1
2002-08-28 10:45:42 51°15.741 2°53.546 148.7 14.1 154.1 10.7
2002-08-28 10:46:42 51°15.53 2°53.727 145.8 14.4 150.8 9.7
2002-08-28 10:47:42 51°15.317 2°53.897 145 14.3 149.5 8.8
2002-08-28 10:48:42 51°15.13 2°54.109 139.8 13.5 144.1 8.3
2002-08-28 10:49:42 51°14.931 2°54.293 140.7 13.7 144.8 8
2002-08-28 10:50:43 51°14.754 2°54.516 135 13.3 139 9
2002-08-28 10:51:42 51°14.594 2°54.713 136.7 12.1 141 9
2002-08-28 10:52:43 51°14.446 2°54.934 130.7 11.9 132 9.3